Time;durP1;ratioP1;P1;durP2;ratioP2;P2;SDS_P1;SDS_P2;PMS_P1;PMS_P2;Temp;Humidity;BMP_temperature;BMP_pressure;BME280_temperature;BME280_humidity;BME280_pressure;Samples;Min_cycle;Max_cycle;Signal;HPM_P1;HPM_P2
2023/03/11 00:00:25;;;;;;;0.20;0.05;;;;;;;11.24;59.81;97602.47;4461761;32;20152;-86
2023/03/11 00:02:51;;;;;;;0.55;0.20;;;;;;;11.33;59.81;97596.62;4460673;32;20176;-88
2023/03/11 00:05:25;;;;;;;0.00;0.00;;;;;;;11.36;59.80;97598.22;4461062;32;20083;-86
2023/03/11 00:07:50;;;;;;;0.95;0.10;;;;;;;11.28;59.80;97587.47;4461470;32;20100;-86
2023/03/11 00:10:21;;;;;;;0.30;0.10;;;;;;;11.24;59.80;97592.06;4461823;32;20448;-86
2023/03/11 00:12:46;;;;;;;1.05;0.15;;;;;;;11.15;59.79;97600.53;4461124;32;20106;-87
2023/03/11 00:15:12;;;;;;;0.30;0.20;;;;;;;11.10;59.80;97593.94;4447990;32;20137;-86
2023/03/11 00:17:37;;;;;;;0.00;0.00;;;;;;;11.05;59.79;97599.47;4448288;32;20507;-86
2023/03/11 00:20:03;;;;;;;0.10;0.10;;;;;;;11.07;59.79;97597.59;4461098;32;21607;-88
2023/03/11 00:22:29;;;;;;;1.10;0.10;;;;;;;11.10;59.80;97586.13;4454599;32;20093;-85
2023/03/11 00:24:54;;;;;;;0.52;0.20;;;;;;;11.12;59.79;97584.25;4447855;32;20149;-88
2023/03/11 00:27:20;;;;;;;0.40;0.10;;;;;;;11.12;59.79;97587.72;4446549;32;20151;-89
2023/03/11 00:29:45;;;;;;;5.37;0.30;;;;;;;11.07;59.80;97588.00;4459539;32;20116;-86
2023/03/11 00:32:10;;;;;;;2.62;0.10;;;;;;;11.03;59.79;97596.97;4460923;32;20152;-86
2023/03/11 00:34:36;;;;;;;0.20;0.10;;;;;;;11.17;59.80;97593.44;4448731;32;20172;-87
2023/03/11 00:37:01;;;;;;;0.20;0.10;;;;;;;11.13;59.79;97589.38;4460927;32;20559;-85
2023/03/11 00:39:27;;;;;;;1.02;0.20;;;;;;;11.20;59.80;97595.00;4447409;32;20477;-87
2023/03/11 00:41:52;;;;;;;0.20;0.10;;;;;;;11.21;59.80;97602.69;4449773;32;20134;-87
2023/03/11 00:44:18;;;;;;;0.90;0.22;;;;;;;11.29;59.80;97597.78;4462549;32;20126;-87
2023/03/11 00:46:43;;;;;;;3.12;0.30;;;;;;;11.26;59.80;97605.81;4464096;32;20568;-86
2023/03/11 00:49:10;;;;;;;0.10;0.10;;;;;;;11.20;59.80;97598.44;4464497;32;20140;-87
2023/03/11 00:51:35;;;;;;;0.73;0.20;;;;;;;11.27;59.80;97602.25;4463141;32;20168;-87
2023/03/11 00:54:00;;;;;;;0.25;0.10;;;;;;;11.27;59.80;97606.63;4462879;32;22797;-88
2023/03/11 00:56:26;;;;;;;0.73;0.30;;;;;;;11.24;59.81;97606.84;4459470;32;20133;-86
2023/03/11 00:58:51;;;;;;;0.30;0.30;;;;;;;11.34;59.81;97621.72;4456653;32;20184;-88
2023/03/11 01:01:17;;;;;;;3.60;0.30;;;;;;;11.28;59.80;97613.50;4457866;32;20489;-86
2023/03/11 01:03:43;;;;;;;0.70;0.17;;;;;;;11.22;59.81;97619.97;4441092;32;20094;-86
2023/03/11 01:06:08;;;;;;;2.17;0.30;;;;;;;11.12;59.80;97600.72;4456177;32;20430;-87
2023/03/11 01:08:34;;;;;;;0.68;0.30;;;;;;;11.13;59.79;97620.63;4441143;32;20484;-88
2023/03/11 01:10:59;;;;;;;0.50;0.30;;;;;;;11.15;59.81;97608.34;4454532;32;20089;-86
2023/03/11 01:13:26;;;;;;;6.95;0.40;;;;;;;10.89;59.78;97607.50;4440937;32;20093;-86
2023/03/11 01:15:51;;;;;;;1.80;0.20;;;;;;;11.05;59.79;97610.72;4464080;32;20090;-86
2023/03/11 01:18:16;;;;;;;0.40;0.20;;;;;;;11.07;59.80;97603.62;4453753;32;20522;-87
2023/03/11 01:20:42;;;;;;;0.52;0.30;;;;;;;10.99;59.79;97605.09;4454181;32;20141;-86
2023/03/11 01:23:08;;;;;;;0.40;0.20;;;;;;;11.19;59.80;97604.56;4440802;32;20361;-88
2023/03/11 01:25:33;;;;;;;2.33;0.30;;;;;;;11.27;59.80;97604.88;4440970;32;20097;-88
2023/03/11 01:27:58;;;;;;;1.20;0.30;;;;;;;11.07;59.79;97605.41;4441231;32;20218;-88
2023/03/11 01:30:24;;;;;;;2.00;0.30;;;;;;;11.11;59.79;97601.63;4455500;32;20089;-86
2023/03/11 01:32:50;;;;;;;3.92;0.30;;;;;;;10.95;59.79;97595.84;4462241;32;20127;-86
2023/03/11 01:35:16;;;;;;;2.70;0.40;;;;;;;11.09;59.80;97608.72;4441665;32;20162;-86
2023/03/11 01:37:42;;;;;;;2.28;0.30;;;;;;;10.98;59.78;97608.63;4460864;32;20088;-86
2023/03/11 01:40:11;;;;;;;1.60;0.20;;;;;;;10.96;59.79;97603.53;4457889;32;20101;-87
2023/03/11 01:42:36;;;;;;;1.73;0.20;;;;;;;10.78;59.78;97607.37;4454991;32;20093;-87
2023/03/11 01:45:05;;;;;;;3.45;0.40;;;;;;;10.82;59.78;97597.59;4453605;32;20152;-88
2023/03/11 01:47:35;;;;;;;1.55;0.32;;;;;;;10.66;59.77;97593.41;4440509;32;20116;-88
2023/03/11 01:50:02;;;;;;;1.35;0.35;;;;;;;10.68;59.77;97599.34;4434653;32;20093;-87
2023/03/11 01:52:28;;;;;;;0.75;0.28;;;;;;;10.78;59.78;97599.56;4456509;32;20105;-87
2023/03/11 01:54:53;;;;;;;1.70;0.40;;;;;;;10.67;59.77;97602.91;4440243;32;20096;-88
2023/03/11 01:57:18;;;;;;;1.75;0.55;;;;;;;10.83;59.78;97607.87;4453245;32;20136;-87
2023/03/11 01:59:51;;;;;;;2.12;0.25;;;;;;;10.76;59.77;97610.06;4453684;32;20515;-88
2023/03/11 02:02:34;;;;;;;0.75;0.25;;;;;;;10.75;59.77;97605.81;4453006;32;20085;-86
2023/03/11 02:05:00;;;;;;;1.85;0.45;;;;;;;10.73;59.78;97607.69;4429752;32;20129;-87
2023/03/11 02:07:25;;;;;;;5.05;0.30;;;;;;;10.74;59.77;97608.50;4441651;32;20385;-86
2023/03/11 02:09:51;;;;;;;1.33;0.30;;;;;;;10.68;59.77;97616.75;4455087;32;20085;-87
2023/03/11 02:12:16;;;;;;;2.67;0.30;;;;;;;10.63;59.77;97618.78;4453818;32;20629;-86
2023/03/11 02:14:44;;;;;;;0.60;0.20;;;;;;;10.68;59.77;97611.53;4452862;32;20155;-85
2023/03/11 02:17:09;;;;;;;3.70;0.40;;;;;;;10.78;59.78;97602.16;4453344;32;20127;-86
2023/03/11 02:19:47;;;;;;;0.30;0.22;;;;;;;10.75;59.78;97615.37;4452594;32;20133;-86
2023/03/11 02:22:12;;;;;;;1.67;0.30;;;;;;;10.89;59.79;97607.50;4453180;32;20099;-86
2023/03/11 02:25:15;;;;;;;0.93;0.40;;;;;;;10.88;59.79;97610.16;4452665;32;20121;-86
2023/03/11 02:27:41;;;;;;;0.32;0.20;;;;;;;10.91;59.78;97597.81;4454738;32;20108;-87
2023/03/11 02:30:08;;;;;;;1.42;0.32;;;;;;;10.95;59.79;97598.44;4441740;32;20154;-86
2023/03/11 02:32:34;;;;;;;1.50;0.45;;;;;;;10.85;59.79;97607.78;4454788;32;20122;-86
2023/03/11 02:34:59;;;;;;;1.80;0.40;;;;;;;10.71;59.78;97603.50;4441261;32;20124;-86
2023/03/11 02:37:24;;;;;;;1.92;0.43;;;;;;;10.80;59.78;97591.66;4453617;32;21645;-86
2023/03/11 02:39:52;;;;;;;1.60;0.98;;;;;;;10.70;59.78;97601.84;4454362;32;23807;-87
2023/03/11 02:42:18;;;;;;;0.65;0.30;;;;;;;10.80;59.78;97602.06;4428376;32;20461;-86
2023/03/11 02:44:45;;;;;;;0.68;0.40;;;;;;;10.82;59.78;97602.78;4457129;32;20496;-85
2023/03/11 02:47:11;;;;;;;1.77;0.32;;;;;;;10.90;59.78;97618.75;4442212;32;20177;-86
2023/03/11 02:49:36;;;;;;;1.10;0.20;;;;;;;10.91;59.78;97615.19;4455677;32;20418;-86
2023/03/11 02:52:02;;;;;;;1.55;0.22;;;;;;;10.90;59.79;97621.34;4440983;32;20077;-86
2023/03/11 02:54:29;;;;;;;1.95;0.50;;;;;;;10.92;59.79;97617.69;4442744;32;20105;-87
2023/03/11 02:56:54;;;;;;;2.33;0.80;;;;;;;10.83;59.78;97620.91;4456973;32;20164;-86
2023/03/11 02:59:20;;;;;;;4.20;0.40;;;;;;;10.87;59.79;97621.53;4440680;32;23667;-85
2023/03/11 03:01:45;;;;;;;3.25;0.40;;;;;;;10.84;59.79;97627.78;4440120;32;20346;-85
2023/03/11 03:04:11;;;;;;;0.75;0.30;;;;;;;10.87;59.78;97637.13;4454781;32;22050;-84
2023/03/11 03:06:36;;;;;;;1.30;0.30;;;;;;;10.94;59.79;97622.81;4454705;32;20152;-83
2023/03/11 03:09:02;;;;;;;0.95;0.47;;;;;;;10.92;59.79;97617.69;4453717;32;20125;-85
2023/03/11 03:11:27;;;;;;;0.70;0.30;;;;;;;10.91;59.78;97636.03;4440951;32;20093;-84
2023/03/11 03:13:52;;;;;;;2.47;0.47;;;;;;;10.70;59.78;97635.69;4453687;32;20747;-84
2023/03/11 03:16:18;;;;;;;1.75;0.20;;;;;;;10.77;59.79;97642.12;4453091;32;21002;-84
2023/03/11 03:18:43;;;;;;;0.45;0.10;;;;;;;10.85;59.79;97657.22;4453272;32;20148;-84
2023/03/11 03:21:09;;;;;;;1.33;0.35;;;;;;;10.89;59.79;97646.53;4455318;32;20364;-85
2023/03/11 03:23:36;;;;;;;2.45;0.20;;;;;;;10.76;59.77;97664.72;4454302;32;20113;-86
2023/03/11 03:26:02;;;;;;;1.02;0.20;;;;;;;10.67;59.77;97665.34;4455512;32;20115;-85
2023/03/11 03:28:28;;;;;;;1.40;0.30;;;;;;;10.85;59.79;97649.41;4457911;32;20057;-86
2023/03/11 03:30:53;;;;;;;1.62;0.32;;;;;;;10.73;59.77;97646.72;4454627;32;20156;-86
2023/03/11 03:33:18;;;;;;;0.22;0.10;;;;;;;10.49;59.77;97663.94;4454734;32;20172;-86
2023/03/11 03:35:44;;;;;;;2.65;0.45;;;;;;;10.53;59.76;97657.59;4440560;32;20223;-87
2023/03/11 03:38:10;;;;;;;1.37;0.30;;;;;;;10.60;59.77;97651.03;4441290;32;20096;-85
2023/03/11 03:40:35;;;;;;;1.55;0.40;;;;;;;10.42;59.76;97644.47;4447204;32;20077;-86
2023/03/11 03:43:01;;;;;;;0.50;0.37;;;;;;;10.47;59.76;97657.16;4453474;32;20109;-86
2023/03/11 03:45:26;;;;;;;2.05;0.25;;;;;;;10.40;59.76;97651.50;4453334;32;20106;-86
2023/03/11 03:47:51;;;;;;;2.28;0.20;;;;;;;10.36;59.75;97663.88;4454192;32;20108;-86
2023/03/11 03:50:17;;;;;;;3.58;0.40;;;;;;;10.10;59.75;97665.50;4455570;32;20119;-85
2023/03/11 03:52:42;;;;;;;0.77;0.10;;;;;;;10.06;59.74;97664.03;4451319;32;20492;-85
2023/03/11 03:55:08;;;;;;;0.40;0.20;;;;;;;9.88;59.73;97670.38;4440131;32;20140;-88
2023/03/11 03:57:33;;;;;;;0.40;0.20;;;;;;;10.04;59.74;97663.28;4453118;32;20084;-86
2023/03/11 03:59:59;;;;;;;0.95;0.40;;;;;;;9.73;59.72;97650.56;4452620;32;20153;-85
2023/03/11 04:02:24;;;;;;;1.65;0.30;;;;;;;9.82;59.73;97668.16;4454049;32;20109;-86
2023/03/11 04:04:50;;;;;;;0.40;0.13;;;;;;;9.85;59.72;97679.19;4460683;32;20148;-87
2023/03/11 04:07:15;;;;;;;1.12;0.10;;;;;;;9.81;59.73;97675.13;4442580;32;20115;-87
2023/03/11 04:09:41;;;;;;;1.42;0.30;;;;;;;9.84;59.73;97702.69;4444701;32;20914;-85
2023/03/11 04:12:07;;;;;;;0.50;0.15;;;;;;;9.82;59.73;97682.00;4450299;32;20389;-85
2023/03/11 04:14:32;;;;;;;0.10;0.10;;;;;;;9.71;59.72;97678.41;4441039;32;20131;-86
2023/03/11 04:16:58;;;;;;;0.10;0.10;;;;;;;9.85;59.73;97681.81;4441534;32;20149;-86
2023/03/11 04:19:23;;;;;;;1.80;0.30;;;;;;;9.79;59.73;97697.78;4455950;32;20129;-86
2023/03/11 04:21:50;;;;;;;1.40;0.28;;;;;;;9.69;59.72;97703.59;4441622;32;20155;-86
2023/03/11 04:24:16;;;;;;;0.60;0.15;;;;;;;9.79;59.73;97686.53;4441939;32;20114;-85
2023/03/11 04:26:42;;;;;;;3.30;0.62;;;;;;;9.58;59.72;97699.09;4454966;32;20101;-85
2023/03/11 04:29:07;;;;;;;0.65;0.40;;;;;;;9.42;59.71;97699.16;4454705;32;20187;-86
2023/03/11 04:31:33;;;;;;;0.60;0.30;;;;;;;9.44;59.71;97701.66;4455200;32;20168;-85
2023/03/11 04:33:58;;;;;;;3.28;0.20;;;;;;;9.40;59.70;97702.78;4463586;32;20127;-84
2023/03/11 04:36:23;;;;;;;2.20;0.50;;;;;;;9.32;59.70;97695.47;4458150;32;22011;-85
2023/03/11 04:38:50;;;;;;;2.65;0.30;;;;;;;9.37;59.70;97716.78;4433502;32;20375;-86
2023/03/11 04:41:15;;;;;;;3.10;0.28;;;;;;;9.37;59.70;97703.81;4454871;32;20121;-86
2023/03/11 04:43:41;;;;;;;5.43;0.50;;;;;;;9.32;59.70;97692.03;4455908;32;20418;-86
2023/03/11 04:46:06;;;;;;;5.05;0.55;;;;;;;9.13;59.69;97695.69;4452070;32;20129;-86
2023/03/11 04:48:32;;;;;;;22.75;1.00;;;;;;;9.00;59.69;97696.53;4454612;32;20145;-85
2023/03/11 04:50:57;;;;;;;7.03;1.30;;;;;;;8.82;59.67;97686.28;4454524;32;20449;-86
2023/03/11 04:53:22;;;;;;;15.45;2.35;;;;;;;8.76;59.67;97686.66;4454361;32;20132;-85
2023/03/11 04:55:49;;;;;;;3.58;0.75;;;;;;;8.83;59.68;97687.97;4440839;32;20158;-87
2023/03/11 04:58:14;;;;;;;17.35;0.73;;;;;;;8.86;59.67;97705.94;4470165;32;20096;-84
2023/03/11 05:00:40;;;;;;;9.70;1.75;;;;;;;8.57;59.66;97696.41;4469082;32;20131;-86
2023/03/11 05:03:05;;;;;;;10.68;0.55;;;;;;;8.45;59.66;97681.50;4455626;32;20399;-86
2023/03/11 05:05:31;;;;;;;13.75;0.75;;;;;;;8.28;59.64;97687.59;4454131;32;20093;-85
2023/03/11 05:07:56;;;;;;;7.25;1.33;;;;;;;8.28;59.63;97698.84;4432577;32;23719;-86
2023/03/11 05:10:22;;;;;;;15.70;0.77;;;;;;;8.06;59.62;97707.87;4454248;32;20560;-84
2023/03/11 05:12:50;;;;;;;7.87;0.77;;;;;;;8.12;59.63;97723.91;4433063;32;20149;-85
2023/03/11 05:15:16;;;;;;;20.10;2.33;;;;;;;8.11;59.63;97683.37;4453851;32;20165;-85
2023/03/11 05:17:42;;;;;;;23.70;1.15;;;;;;;8.16;59.64;97709.03;4444196;32;20429;-85
2023/03/11 05:20:08;;;;;;;26.55;2.12;;;;;;;8.11;59.63;97713.63;4454570;32;20120;-86
2023/03/11 05:22:33;;;;;;;35.00;2.03;;;;;;;7.91;59.61;97725.06;4454346;32;20101;-86
2023/03/11 05:24:59;;;;;;;25.25;1.27;;;;;;;7.83;59.61;97720.31;4453840;32;20111;-84
2023/03/11 05:27:24;;;;;;;22.17;2.58;;;;;;;7.85;59.62;97746.97;4461406;32;20128;-84
2023/03/11 05:29:50;;;;;;;11.35;1.48;;;;;;;7.68;59.60;97731.47;4455091;32;20096;-84
2023/03/11 05:32:15;;;;;;;19.20;2.00;;;;;;;7.72;59.61;97755.44;4454213;32;20148;-84
2023/03/11 05:34:40;;;;;;;7.43;0.60;;;;;;;7.59;59.60;97739.72;4451643;32;20418;-84
2023/03/11 05:37:06;;;;;;;7.10;0.77;;;;;;;7.60;59.60;97754.34;4454121;32;20089;-85
2023/03/11 05:39:32;;;;;;;13.23;1.30;;;;;;;7.60;59.60;97757.75;4454278;32;20116;-85
2023/03/11 05:41:57;;;;;;;6.82;0.98;;;;;;;7.57;59.61;97768.28;4454185;32;20136;-86
2023/03/11 05:44:23;;;;;;;5.00;0.50;;;;;;;7.62;59.61;97781.81;4454896;32;23135;-85
2023/03/11 05:46:48;;;;;;;6.37;0.47;;;;;;;7.68;59.61;97778.91;4453923;32;20138;-85
2023/03/11 05:49:14;;;;;;;7.82;1.12;;;;;;;7.78;59.62;97768.91;4454116;32;20164;-86
2023/03/11 05:51:39;;;;;;;5.12;0.43;;;;;;;7.63;59.61;97767.97;4455392;32;20128;-85
2023/03/11 05:54:10;;;;;;;4.32;0.50;;;;;;;7.73;59.61;97770.06;4440527;32;20105;-85
2023/03/11 05:56:35;;;;;;;6.43;0.22;;;;;;;7.75;59.61;97776.81;4455262;32;20389;-85
2023/03/11 05:59:01;;;;;;;7.20;0.80;;;;;;;7.63;59.61;97777.47;4454865;32;20101;-85
2023/03/11 06:01:26;;;;;;;1.23;0.25;;;;;;;7.70;59.61;97766.72;4453234;32;26542;-85
2023/03/11 06:03:51;;;;;;;11.12;0.47;;;;;;;7.94;59.63;97779.28;4453770;32;20129;-84
2023/03/11 06:06:17;;;;;;;0.43;0.30;;;;;;;7.70;59.61;97764.12;4453672;32;20119;-85
2023/03/11 06:08:48;;;;;;;2.70;0.40;;;;;;;7.45;59.60;97786.19;4450477;32;20487;-85
2023/03/11 06:11:13;;;;;;;1.40;0.20;;;;;;;7.42;59.60;97794.94;4455263;32;20096;-85
2023/03/11 06:13:39;;;;;;;1.35;0.40;;;;;;;7.53;59.60;97799.56;4453653;32;20097;-85
2023/03/11 06:16:05;;;;;;;1.85;0.65;;;;;;;7.25;59.59;97798.34;4440693;32;20105;-86
2023/03/11 06:18:30;;;;;;;1.02;0.60;;;;;;;7.41;59.60;97811.38;4455163;32;20469;-86
2023/03/11 06:20:59;;;;;;;0.82;0.65;;;;;;;7.37;59.59;97807.28;4453804;32;20171;-86
2023/03/11 06:23:25;;;;;;;1.23;0.65;;;;;;;7.09;59.58;97826.72;4440841;32;20180;-85
2023/03/11 06:25:57;;;;;;;1.10;0.52;;;;;;;7.11;59.58;97834.44;4453566;32;20406;-85
2023/03/11 06:28:23;;;;;;;2.58;0.40;;;;;;;7.21;59.58;97845.16;4440955;32;20113;-85
2023/03/11 06:30:48;;;;;;;3.67;0.65;;;;;;;7.29;59.59;97838.69;4453594;32;20370;-85
2023/03/11 06:33:13;;;;;;;1.25;0.50;;;;;;;7.38;59.59;97850.38;4454787;32;20406;-85
2023/03/11 06:35:39;;;;;;;0.30;0.20;;;;;;;7.30;59.59;97868.00;4453074;32;20101;-85
2023/03/11 06:38:05;;;;;;;0.50;0.32;;;;;;;7.26;59.59;97882.00;4453337;32;20124;-84
2023/03/11 06:40:30;;;;;;;2.03;0.80;;;;;;;6.96;59.57;97879.97;4454958;32;20152;-84
2023/03/11 06:42:56;;;;;;;3.80;0.75;;;;;;;7.12;59.58;97882.69;4453604;32;20101;-85
2023/03/11 06:45:21;;;;;;;2.25;0.40;;;;;;;7.04;59.58;97901.12;4453173;32;20530;-86
2023/03/11 06:47:46;;;;;;;1.10;0.28;;;;;;;7.09;59.58;97912.09;4452924;32;20124;-86
2023/03/11 06:50:12;;;;;;;1.85;0.40;;;;;;;7.11;59.59;97911.22;4461891;32;20139;-86
2023/03/11 06:52:37;;;;;;;2.65;0.50;;;;;;;7.16;59.58;97915.25;4453122;32;20089;-86
2023/03/11 06:55:03;;;;;;;0.73;0.50;;;;;;;7.23;59.58;97908.03;4445169;32;20379;-86
2023/03/11 06:57:30;;;;;;;0.62;0.45;;;;;;;7.21;59.58;97909.84;4440904;32;20097;-86
2023/03/11 06:59:55;;;;;;;6.70;0.43;;;;;;;7.47;59.61;97906.00;4445542;32;20491;-86
2023/03/11 07:02:21;;;;;;;1.58;0.47;;;;;;;7.27;59.59;97914.72;4454491;32;20137;-85
2023/03/11 07:04:49;;;;;;;0.65;0.28;;;;;;;7.23;59.58;97908.88;4445406;32;20097;-86
2023/03/11 07:07:15;;;;;;;0.20;0.20;;;;;;;7.44;59.60;97909.59;4440639;32;20121;-85
2023/03/11 07:09:40;;;;;;;0.37;0.20;;;;;;;7.79;59.62;97914.75;4454487;32;20116;-85
2023/03/11 07:12:06;;;;;;;0.50;0.28;;;;;;;7.83;59.62;97918.91;4440536;32;20615;-86
2023/03/11 07:14:31;;;;;;;0.77;0.37;;;;;;;7.79;59.62;97919.94;4453477;32;20361;-86
2023/03/11 07:16:57;;;;;;;0.20;0.10;;;;;;;7.84;59.62;97928.34;4453393;32;20189;-86
2023/03/11 07:19:22;;;;;;;0.62;0.40;;;;;;;7.88;59.62;97937.63;4447932;32;20092;-85
2023/03/11 07:21:47;;;;;;;0.20;0.20;;;;;;;8.01;59.63;97923.13;4443358;32;20425;-86
2023/03/11 07:24:13;;;;;;;0.50;0.30;;;;;;;7.94;59.63;97925.22;4434628;32;20186;-86
2023/03/11 07:26:38;;;;;;;4.07;0.20;;;;;;;7.89;59.62;97939.31;4456010;32;20156;-85
2023/03/11 07:29:04;;;;;;;0.50;0.32;;;;;;;7.81;59.62;97910.38;4454432;32;20119;-86
2023/03/11 07:31:31;;;;;;;3.60;0.40;;;;;;;7.71;59.61;97928.09;4453198;32;20389;-85
2023/03/11 07:33:57;;;;;;;0.60;0.32;;;;;;;7.85;59.63;97924.84;4440574;32;20461;-87
2023/03/11 07:36:23;;;;;;;0.50;0.43;;;;;;;8.21;59.64;97928.16;4453270;32;20135;-86
2023/03/11 07:38:53;;;;;;;0.55;0.30;;;;;;;7.99;59.63;97915.44;4447186;32;20127;-86
2023/03/11 07:41:18;;;;;;;2.00;0.30;;;;;;;7.93;59.63;97910.59;4467345;32;20116;-86
2023/03/11 07:43:43;;;;;;;0.35;0.20;;;;;;;8.07;59.64;97915.06;4452915;32;20133;-88
2023/03/11 07:46:11;;;;;;;0.50;0.30;;;;;;;7.68;59.61;97910.97;4452505;32;20109;-88
2023/03/11 07:48:37;;;;;;;0.30;0.20;;;;;;;7.70;59.62;97924.69;4447683;32;20135;-87
2023/03/11 07:51:04;;;;;;;0.28;0.13;;;;;;;7.60;59.61;97901.91;4452887;32;20089;-87
2023/03/11 07:53:29;;;;;;;0.32;0.28;;;;;;;7.29;59.59;97900.81;4454316;32;20144;-86
2023/03/11 07:55:56;;;;;;;0.90;0.30;;;;;;;6.83;59.56;97922.81;4452512;32;20392;-86
2023/03/11 07:58:21;;;;;;;0.77;0.40;;;;;;;6.91;59.57;97910.41;4460660;32;20105;-86
2023/03/11 08:00:47;;;;;;;0.82;0.30;;;;;;;7.06;59.57;97920.00;4436979;32;20421;-86
2023/03/11 08:03:12;;;;;;;1.87;0.47;;;;;;;7.13;59.58;97886.09;4439756;32;20492;-87
2023/03/11 08:05:38;;;;;;;1.08;0.30;;;;;;;7.16;59.58;97865.25;4439668;32;20343;-87
2023/03/11 08:08:03;;;;;;;0.40;0.20;;;;;;;7.03;59.58;97894.28;4453868;32;20123;-87
2023/03/11 08:10:29;;;;;;;1.10;0.40;;;;;;;7.09;59.57;97893.16;4453788;32;20350;-86
2023/03/11 08:12:54;;;;;;;4.45;1.12;;;;;;;7.13;59.58;97881.78;4452525;32;20109;-89
2023/03/11 08:15:19;;;;;;;1.92;0.73;;;;;;;7.14;59.58;97918.84;4453299;32;21412;-87
2023/03/11 08:17:45;;;;;;;3.80;0.40;;;;;;;7.02;59.57;97904.72;4452503;32;20101;-87
2023/03/11 08:20:11;;;;;;;4.53;0.30;;;;;;;6.99;59.58;97960.00;4450208;32;20124;-90
2023/03/11 08:22:36;;;;;;;2.37;0.30;;;;;;;7.06;59.58;97958.81;4431829;32;20108;-90
2023/03/11 08:25:02;;;;;;;1.00;0.35;;;;;;;7.09;59.59;97948.31;4452657;32;20172;-90
2023/03/11 08:27:27;;;;;;;3.28;0.40;;;;;;;7.30;59.59;97935.28;4439701;32;20117;-89
2023/03/11 08:29:53;;;;;;;5.72;0.43;;;;;;;7.23;59.59;97903.69;4436847;32;20140;-90
2023/03/11 08:32:18;;;;;;;4.75;0.45;;;;;;;6.99;59.57;97931.56;4439728;32;20115;-91
2023/03/11 08:34:44;;;;;;;7.12;1.42;;;;;;;7.03;59.58;97877.94;4439824;32;20178;-88
2023/03/11 08:37:09;;;;;;;1.55;0.43;;;;;;;7.17;59.58;97872.13;4446692;32;20415;-90
2023/03/11 08:39:35;;;;;;;7.30;2.37;;;;;;;7.13;59.59;97873.19;4452463;32;20176;-91
2023/03/11 08:42:01;;;;;;;2.50;0.40;;;;;;;7.35;59.60;97877.25;4446513;32;20084;-91
2023/03/11 08:44:27;;;;;;;5.37;0.40;;;;;;;7.63;59.61;97862.91;4452578;32;20123;-90
2023/03/11 08:46:52;;;;;;;0.52;0.28;;;;;;;7.90;59.62;97871.03;4439498;32;20157;-91
2023/03/11 08:49:18;;;;;;;2.12;0.28;;;;;;;8.04;59.63;97891.88;4437304;32;20440;-91
2023/03/11 08:51:43;;;;;;;0.55;0.30;;;;;;;7.88;59.62;97888.41;4446833;32;20110;-91
2023/03/11 08:54:09;;;;;;;0.55;0.40;;;;;;;8.00;59.64;97930.06;4444194;32;20102;-91
2023/03/11 08:56:34;;;;;;;0.90;0.40;;;;;;;7.88;59.62;97897.03;4442560;32;20120;-90
2023/03/11 08:59:00;;;;;;;2.30;0.47;;;;;;;8.04;59.63;97904.00;4453908;32;20100;-92
2023/03/11 09:01:25;;;;;;;5.68;0.50;;;;;;;8.10;59.63;97934.81;4433691;32;20115;-91
2023/03/11 09:03:51;;;;;;;1.52;0.50;;;;;;;7.98;59.63;97918.13;4445140;32;20469;-91
2023/03/11 09:06:16;;;;;;;2.25;0.65;;;;;;;8.11;59.64;97944.25;4455117;32;20105;-90
2023/03/11 09:08:43;;;;;;;2.30;0.30;;;;;;;8.35;59.65;97917.09;4452111;32;20112;-93
2023/03/11 09:11:08;;;;;;;2.12;0.30;;;;;;;8.22;59.64;97958.31;4448754;32;20384;-89
2023/03/11 09:13:34;;;;;;;3.12;0.30;;;;;;;8.07;59.63;97976.44;4445086;32;20089;-93
2023/03/11 09:16:00;;;;;;;2.90;0.40;;;;;;;7.99;59.64;97989.75;4442248;32;20132;-92
2023/03/11 09:18:26;;;;;;;1.12;0.50;;;;;;;8.16;59.64;98001.88;4438209;32;20461;-89
2023/03/11 09:20:51;;;;;;;0.88;0.37;;;;;;;8.25;59.65;97986.69;4441177;32;20429;-89
2023/03/11 09:23:17;;;;;;;0.73;0.20;;;;;;;7.83;59.62;98015.59;4438951;32;20112;-91
2023/03/11 09:25:42;;;;;;;9.02;0.50;;;;;;;7.92;59.63;98002.16;4436036;32;20108;-91
2023/03/11 09:28:08;;;;;;;1.67;0.43;;;;;;;7.78;59.62;98025.31;4444077;32;20413;-92
2023/03/11 09:30:34;;;;;;;4.47;0.20;;;;;;;7.72;59.61;97985.91;4433718;32;20335;-91
2023/03/11 09:32:59;;;;;;;6.80;0.57;;;;;;;7.77;59.62;98018.44;4451402;32;20117;-89
2023/03/11 09:35:25;;;;;;;5.35;0.35;;;;;;;7.66;59.61;98018.13;4460866;32;20426;-91
2023/03/11 09:37:50;;;;;;;6.45;0.45;;;;;;;7.62;59.61;98007.09;4456125;32;20496;-92
2023/03/11 09:40:20;;;;;;;3.03;0.20;;;;;;;7.73;59.61;98027.28;4455840;32;20140;-88
2023/03/11 09:42:58;;;;;;;11.10;0.60;;;;;;;7.77;59.62;98039.16;4454867;32;20509;-90
2023/03/11 09:45:34;;;;;;;4.68;0.32;;;;;;;7.52;59.60;98036.06;4463214;32;20093;-90
2023/03/11 09:48:22;;;;;;;5.72;0.50;;;;;;;7.69;59.62;98036.94;4443791;32;20111;-88
2023/03/11 09:50:52;;;;;;;1.12;0.30;;;;;;;7.65;59.61;98042.34;4469168;32;20569;-88
2023/03/11 09:53:21;;;;;;;1.55;0.30;;;;;;;7.77;59.62;98026.22;4454151;32;20124;-91
2023/03/11 09:55:49;;;;;;;0.90;0.60;;;;;;;7.80;59.62;98059.72;4454189;32;20125;-91
2023/03/11 09:58:45;;;;;;;7.15;0.37;;;;;;;7.87;59.63;98037.00;4441281;32;20089;-89
2023/03/11 10:01:26;;;;;;;7.50;0.52;;;;;;;7.84;59.62;98044.91;4454177;32;20112;-89
2023/03/11 10:03:56;;;;;;;0.88;0.47;;;;;;;8.06;59.63;98058.50;4438377;32;20105;-85
2023/03/11 10:06:27;;;;;;;0.40;0.20;;;;;;;7.96;59.63;98054.66;4453848;32;20109;-88
2023/03/11 10:09:11;;;;;;;5.50;0.40;;;;;;;8.02;59.63;98033.63;4451928;32;20112;-89
2023/03/11 10:11:44;;;;;;;4.35;0.40;;;;;;;7.84;59.62;98027.63;4465053;32;20137;-90
2023/03/11 10:14:24;;;;;;;2.37;0.30;;;;;;;7.97;59.63;98052.00;4459577;32;20168;-89
2023/03/11 10:17:05;;;;;;;1.75;0.30;;;;;;;8.04;59.63;98046.50;4467412;32;20231;-87
2023/03/11 10:19:34;;;;;;;1.17;0.60;;;;;;;7.77;59.62;98065.06;4453704;32;20197;-88
2023/03/11 10:22:41;;;;;;;1.02;0.10;;;;;;;7.62;59.61;98056.28;4453717;32;20119;-90
2023/03/11 10:25:12;;;;;;;8.63;0.52;;;;;;;7.70;59.62;98077.47;4435594;32;20170;-91
2023/03/11 10:27:54;;;;;;;1.17;0.20;;;;;;;7.69;59.62;98062.84;4458044;32;20117;-89
2023/03/11 10:30:31;;;;;;;1.17;0.40;;;;;;;7.50;59.61;98118.97;4444232;32;20105;-92
2023/03/11 10:33:02;;;;;;;3.30;0.43;;;;;;;7.61;59.60;98123.69;4466761;32;20093;-91
2023/03/11 10:35:41;;;;;;;5.70;0.70;;;;;;;7.70;59.62;98131.03;4463015;32;20120;-90
2023/03/11 10:38:13;;;;;;;5.53;0.35;;;;;;;7.54;59.61;98120.50;4451387;32;20131;-90
2023/03/11 10:40:41;;;;;;;6.18;0.82;;;;;;;7.49;59.61;98142.34;4450149;32;20119;-92
2023/03/11 10:43:12;;;;;;;4.75;0.37;;;;;;;7.66;59.61;98143.28;4457012;32;20089;-93
2023/03/11 10:45:42;;;;;;;1.73;0.60;;;;;;;7.54;59.61;98130.88;4456909;32;20188;-92
2023/03/11 10:48:12;;;;;;;4.07;0.60;;;;;;;7.45;59.60;98140.81;4441274;32;20129;-90
2023/03/11 10:50:42;;;;;;;9.55;0.70;;;;;;;7.63;59.62;98138.25;4451948;32;20089;-90
2023/03/11 10:53:07;;;;;;;;;;;;;;;8.13;59.64;98126.41;4446649;32;20104;-89
2023/03/11 10:55:32;;;;;;;1.20;0.88;;;;;;;7.99;59.64;98145.19;4468796;32;20043;-90
2023/03/11 10:58:11;;;;;;;2.58;0.60;;;;;;;7.87;59.63;98119.88;4433140;32;20441;-90
2023/03/11 11:00:37;;;;;;;1.05;0.30;;;;;;;8.08;59.64;98128.41;4440821;32;20839;-90
2023/03/11 11:03:03;;;;;;;7.03;0.55;;;;;;;8.26;59.65;98078.22;4447734;32;20149;-93
2023/03/11 11:05:32;;;;;;;3.65;0.77;;;;;;;8.38;59.66;98134.72;4441240;32;20109;-91
2023/03/11 11:08:06;;;;;;;5.65;0.50;;;;;;;8.42;59.65;98125.03;4435809;32;20097;-90
2023/03/11 11:10:33;;;;;;;2.10;0.40;;;;;;;8.61;59.67;98137.00;4443211;32;20111;-90
2023/03/11 11:13:18;;;;;;;3.17;0.70;;;;;;;8.92;59.68;98138.91;4448744;32;20443;-91
2023/03/11 11:16:04;;;;;;;0.73;0.25;;;;;;;9.12;59.70;98147.41;4456293;32;20100;-89
2023/03/11 11:18:34;;;;;;;3.95;0.50;;;;;;;9.04;59.70;98168.59;4455261;32;20108;-89
2023/03/11 11:21:07;;;;;;;8.88;0.40;;;;;;;8.97;59.69;98163.75;4435376;32;20849;-87
2023/03/11 11:23:41;;;;;;;3.28;1.55;;;;;;;8.63;59.67;98157.69;4465269;32;20164;-87
2023/03/11 11:26:20;;;;;;;10.00;0.40;;;;;;;8.50;59.66;98164.37;4441367;32;20177;-88
2023/03/11 11:28:46;;;;;;;8.55;0.90;;;;;;;8.37;59.65;98173.69;4446704;32;20435;-92
2023/03/11 11:31:24;;;;;;;1.90;0.70;;;;;;;8.49;59.65;98166.13;4456338;32;20149;-89
2023/03/11 11:33:54;;;;;;;1.60;1.42;;;;;;;8.60;59.67;98166.47;4431853;32;20104;-90
2023/03/11 11:36:20;;;;;;;5.07;0.50;;;;;;;8.63;59.67;98160.28;4441192;32;20093;-90
2023/03/11 11:38:45;;;;;;;3.28;0.55;;;;;;;8.40;59.66;98173.53;4445165;32;20172;-91